createdAt,value
2022-11-22T00:00:38.000Z,7947.0
2022-11-22T00:01:38.000Z,7602.0
2022-11-22T00:02:39.000Z,7635.0
2022-11-22T00:03:38.000Z,7510.0
2022-11-22T00:04:38.000Z,7566.0
2022-11-22T00:05:39.000Z,8022.0
2022-11-22T00:06:38.000Z,7866.0
2022-11-22T00:07:38.000Z,8081.0
2022-11-22T00:08:38.000Z,7926.0
2022-11-22T00:09:38.000Z,7641.0
2022-11-22T00:10:39.000Z,7755.0
2022-11-22T00:11:38.000Z,8245.0
2022-11-22T00:12:38.000Z,7846.0
2022-11-22T00:13:38.000Z,7905.0
2022-11-22T00:14:38.000Z,8373.0
2022-11-22T00:15:39.000Z,8700.0
2022-11-22T00:16:38.000Z,8493.0
2022-11-22T00:17:38.000Z,8585.0
2022-11-22T00:18:39.000Z,8420.0
2022-11-22T00:19:38.000Z,9604.0
2022-11-22T00:20:38.000Z,9881.0
2022-11-22T00:21:38.000Z,10013.0
2022-11-22T00:22:38.000Z,10814.0
2022-11-22T00:23:39.000Z,10743.0
2022-11-22T00:24:38.000Z,9538.0
2022-11-22T00:25:38.000Z,10128.0
2022-11-22T00:26:38.000Z,10549.0
2022-11-22T00:27:38.000Z,10792.0
2022-11-22T00:28:39.000Z,11048.0
2022-11-22T00:29:38.000Z,11070.0
2022-11-22T00:30:38.000Z,10596.0
2022-11-22T00:31:39.000Z,11227.0
2022-11-22T00:32:38.000Z,11325.0
2022-11-22T00:33:38.000Z,11684.0
2022-11-22T00:34:38.000Z,13264.0
2022-11-22T00:35:38.000Z,12919.0
2022-11-22T00:36:39.000Z,14183.0
2022-11-22T00:37:38.000Z,13458.0
2022-11-22T00:38:38.000Z,14834.0
2022-11-22T00:39:38.000Z,14308.0
2022-11-22T00:40:38.000Z,15478.0
2022-11-22T00:41:38.000Z,16000.0
2022-11-22T00:42:39.000Z,16000.0
2022-11-22T00:43:38.000Z,16000.0
2022-11-22T00:44:38.000Z,15294.0
2022-11-22T00:45:38.000Z,16000.0
2022-11-22T00:46:38.000Z,16000.0
2022-11-22T00:47:39.000Z,16000.0
2022-11-22T00:48:38.000Z,16000.0
2022-11-22T00:49:38.000Z,16000.0
2022-11-22T00:50:38.000Z,16000.0
2022-11-22T00:51:38.000Z,16000.0
2022-11-22T00:52:39.000Z,16000.0
2022-11-22T00:53:38.000Z,16000.0
2022-11-22T00:54:38.000Z,16000.0
2022-11-22T00:55:39.000Z,16000.0
2022-11-22T00:56:38.000Z,16000.0
2022-11-22T00:57:38.000Z,16000.0
2022-11-22T00:58:38.000Z,16000.0
2022-11-22T00:59:38.000Z,16000.0
2022-11-22T01:00:39.000Z,16000.0
2022-11-22T01:01:38.000Z,16000.0
2022-11-22T01:02:38.000Z,16000.0
2022-11-22T01:03:38.000Z,16000.0
2022-11-22T01:04:38.000Z,16000.0
2022-11-22T01:05:38.000Z,16000.0
2022-11-22T01:06:38.000Z,16000.0
2022-11-22T01:07:38.000Z,16000.0
2022-11-22T01:08:39.000Z,16000.0
2022-11-22T01:09:38.000Z,16000.0
2022-11-22T01:10:38.000Z,16000.0
2022-11-22T01:11:38.000Z,16000.0
2022-11-22T01:12:38.000Z,16000.0
2022-11-22T01:13:39.000Z,16000.0
2022-11-22T01:14:38.000Z,16000.0
2022-11-22T01:15:38.000Z,16000.0
2022-11-22T01:16:37.000Z,16000.0
2022-11-22T01:17:38.000Z,16000.0
2022-11-22T01:18:39.000Z,16000.0
2022-11-22T01:19:38.000Z,16000.0
2022-11-22T01:20:38.000Z,16000.0
2022-11-22T01:21:39.000Z,16000.0
2022-11-22T01:22:38.000Z,16000.0
2022-11-22T01:23:38.000Z,16000.0
2022-11-22T01:24:38.000Z,16000.0
2022-11-22T01:25:38.000Z,16000.0
2022-11-22T01:26:39.000Z,16000.0
2022-11-22T01:27:38.000Z,16000.0
2022-11-22T01:28:38.000Z,16000.0
2022-11-22T01:29:38.000Z,16000.0
2022-11-22T01:30:38.000Z,16000.0
2022-11-22T01:31:38.000Z,16000.0
2022-11-22T01:32:38.000Z,16000.0
2022-11-22T01:33:38.000Z,16000.0
2022-11-22T01:34:39.000Z,16000.0
2022-11-22T01:35:38.000Z,16000.0
2022-11-22T01:36:38.000Z,16000.0
2022-11-22T01:37:38.000Z,16000.0
2022-11-22T01:38:38.000Z,16000.0
2022-11-22T01:39:39.000Z,16000.0
2022-11-22T01:40:38.000Z,16000.0
2022-11-22T01:41:38.000Z,16000.0
2022-11-22T01:42:39.000Z,16000.0
2022-11-22T01:43:38.000Z,16000.0
2022-11-22T01:44:38.000Z,16000.0
2022-11-22T01:45:39.000Z,16000.0
2022-11-22T01:46:38.000Z,16000.0
2022-11-22T01:47:38.000Z,16000.0
2022-11-22T01:48:38.000Z,16000.0
2022-11-22T01:49:38.000Z,16000.0
2022-11-22T01:50:39.000Z,16000.0
2022-11-22T01:51:38.000Z,16000.0
2022-11-22T01:52:38.000Z,16000.0
2022-11-22T01:53:39.000Z,16000.0
2022-11-22T01:54:38.000Z,16000.0
2022-11-22T01:55:38.000Z,16000.0
2022-11-22T01:56:38.000Z,16000.0
2022-11-22T01:57:38.000Z,16000.0
2022-11-22T01:58:39.000Z,16000.0
2022-11-22T01:59:38.000Z,16000.0
2022-11-22T02:00:38.000Z,16000.0
2022-11-22T02:01:38.000Z,16000.0
2022-11-22T02:02:38.000Z,16000.0
2022-11-22T02:03:39.000Z,16000.0
2022-11-22T02:04:38.000Z,16000.0
2022-11-22T02:05:38.000Z,16000.0
2022-11-22T02:06:39.000Z,16000.0
2022-11-22T02:07:38.000Z,16000.0
2022-11-22T02:08:38.000Z,16000.0
2022-11-22T02:09:38.000Z,16000.0
2022-11-22T02:10:38.000Z,16000.0
2022-11-22T02:11:39.000Z,16000.0
2022-11-22T02:12:38.000Z,16000.0
2022-11-22T02:13:38.000Z,16000.0
2022-11-22T02:14:38.000Z,16000.0
2022-11-22T02:15:38.000Z,15350.0
2022-11-22T02:16:39.000Z,15472.0
2022-11-22T02:17:38.000Z,16000.0
2022-11-22T02:18:38.000Z,16000.0
2022-11-22T02:19:39.000Z,15900.0
2022-11-22T02:20:38.000Z,16000.0
2022-11-22T02:21:38.000Z,16000.0
2022-11-22T02:22:38.000Z,16000.0
2022-11-22T02:23:38.000Z,16000.0
2022-11-22T02:24:39.000Z,16000.0
2022-11-22T02:25:38.000Z,16000.0
2022-11-22T02:26:38.000Z,16000.0
2022-11-22T02:27:38.000Z,16000.0
2022-11-22T02:28:38.000Z,16000.0
2022-11-22T02:29:39.000Z,16000.0
2022-11-22T02:30:38.000Z,16000.0
2022-11-22T02:31:38.000Z,16000.0
2022-11-22T02:32:39.000Z,16000.0
2022-11-22T02:33:38.000Z,16000.0
2022-11-22T02:34:38.000Z,16000.0
2022-11-22T02:35:38.000Z,16000.0
2022-11-22T02:36:38.000Z,16000.0
2022-11-22T02:37:39.000Z,16000.0
2022-11-22T02:38:38.000Z,16000.0
2022-11-22T02:39:38.000Z,16000.0
2022-11-22T02:40:38.000Z,16000.0
2022-11-22T02:41:38.000Z,16000.0
2022-11-22T02:42:38.000Z,16000.0
2022-11-22T02:43:38.000Z,16000.0
2022-11-22T02:44:38.000Z,16000.0
2022-11-22T02:45:38.000Z,16000.0
2022-11-22T02:46:38.000Z,16000.0
2022-11-22T02:47:38.000Z,16000.0
2022-11-22T02:48:39.000Z,16000.0
2022-11-22T02:49:38.000Z,16000.0
2022-11-22T02:50:38.000Z,16000.0
2022-11-22T02:51:38.000Z,16000.0
2022-11-22T02:52:38.000Z,16000.0
2022-11-22T02:53:39.000Z,16000.0
2022-11-22T02:54:38.000Z,16000.0
2022-11-22T02:55:38.000Z,16000.0
2022-11-22T02:56:39.000Z,16000.0
2022-11-22T02:57:38.000Z,16000.0
2022-11-22T02:58:38.000Z,16000.0
2022-11-22T02:59:38.000Z,16000.0
2022-11-22T03:00:38.000Z,16000.0
2022-11-22T03:01:39.000Z,16000.0
2022-11-22T03:02:38.000Z,16000.0
2022-11-22T03:03:38.000Z,16000.0
2022-11-22T03:04:38.000Z,16000.0
2022-11-22T03:05:38.000Z,16000.0
2022-11-22T03:06:38.000Z,16000.0
2022-11-22T03:07:38.000Z,16000.0
2022-11-22T03:08:38.000Z,16000.0
2022-11-22T03:09:39.000Z,16000.0
2022-11-22T03:10:38.000Z,16000.0
2022-11-22T03:11:38.000Z,16000.0
2022-11-22T03:12:38.000Z,16000.0
2022-11-22T03:13:38.000Z,16000.0
2022-11-22T03:14:39.000Z,16000.0
2022-11-22T03:15:38.000Z,16000.0
2022-11-22T03:16:38.000Z,16000.0
2022-11-22T03:17:37.000Z,16000.0
2022-11-22T03:18:38.000Z,16000.0
2022-11-22T03:19:39.000Z,16000.0
2022-11-22T03:20:38.000Z,16000.0
2022-11-22T03:21:38.000Z,16000.0
2022-11-22T03:22:39.000Z,16000.0
2022-11-22T03:23:38.000Z,16000.0
2022-11-22T03:24:38.000Z,16000.0
2022-11-22T03:25:38.000Z,16000.0
2022-11-22T03:26:38.000Z,16000.0
2022-11-22T03:27:39.000Z,16000.0
2022-11-22T03:28:38.000Z,16000.0
2022-11-22T03:29:38.000Z,16000.0
2022-11-22T03:30:38.000Z,16000.0
2022-11-22T03:31:38.000Z,16000.0
2022-11-22T03:32:38.000Z,16000.0
2022-11-22T03:33:38.000Z,16000.0
2022-11-22T03:34:38.000Z,16000.0
2022-11-22T03:35:39.000Z,16000.0
2022-11-22T03:36:38.000Z,16000.0
2022-11-22T03:37:38.000Z,16000.0
2022-11-22T03:38:38.000Z,16000.0
2022-11-22T03:39:38.000Z,16000.0
2022-11-22T03:40:39.000Z,16000.0
2022-11-22T03:41:38.000Z,16000.0
2022-11-22T03:42:38.000Z,16000.0
2022-11-22T03:43:39.000Z,16000.0
2022-11-22T03:44:38.000Z,16000.0
2022-11-22T03:45:38.000Z,16000.0
2022-11-22T03:46:39.000Z,16000.0
2022-11-22T03:47:38.000Z,16000.0
2022-11-22T03:48:38.000Z,16000.0
2022-11-22T03:49:38.000Z,16000.0
2022-11-22T03:50:38.000Z,16000.0
2022-11-22T03:51:39.000Z,16000.0
2022-11-22T03:52:38.000Z,16000.0
2022-11-22T03:53:38.000Z,16000.0
2022-11-22T03:54:39.000Z,16000.0
2022-11-22T03:55:38.000Z,16000.0
2022-11-22T03:56:38.000Z,16000.0
2022-11-22T03:57:38.000Z,16000.0
2022-11-22T03:58:38.000Z,16000.0
2022-11-22T03:59:39.000Z,16000.0
2022-11-22T04:00:38.000Z,16000.0
2022-11-22T04:01:38.000Z,16000.0
2022-11-22T04:02:38.000Z,16000.0
2022-11-22T04:03:38.000Z,13629.0
2022-11-22T04:04:39.000Z,13906.0
2022-11-22T04:05:38.000Z,14395.0
2022-11-22T04:06:38.000Z,14150.0
2022-11-22T04:07:39.000Z,13547.0
2022-11-22T04:08:38.000Z,14114.0
2022-11-22T04:09:38.000Z,13336.0
2022-11-22T04:10:38.000Z,13270.0
2022-11-22T04:11:38.000Z,13661.0
2022-11-22T04:12:39.000Z,12757.0
2022-11-22T04:13:38.000Z,12269.0
2022-11-22T04:14:38.000Z,12560.0
2022-11-22T04:15:38.000Z,13448.0
2022-11-22T04:16:38.000Z,12472.0
2022-11-22T04:17:38.000Z,12987.0
2022-11-22T04:18:38.000Z,11988.0
2022-11-22T04:19:38.000Z,11982.0
2022-11-22T04:20:39.000Z,11394.0
2022-11-22T04:21:38.000Z,10921.0
2022-11-22T04:22:38.000Z,11085.0
2022-11-22T04:23:38.000Z,10976.0
2022-11-22T04:24:38.000Z,10435.0
2022-11-22T04:25:39.000Z,10961.0
2022-11-22T04:26:38.000Z,10670.0
2022-11-22T04:27:38.000Z,11283.0
2022-11-22T04:28:37.000Z,12133.0
2022-11-22T04:29:38.000Z,11178.0
2022-11-22T04:30:38.000Z,11820.0
2022-11-22T04:31:38.000Z,13847.0
2022-11-22T04:32:38.000Z,15702.0
2022-11-22T04:33:39.000Z,16000.0
2022-11-22T04:34:38.000Z,16000.0
2022-11-22T04:35:38.000Z,16000.0
2022-11-22T04:36:38.000Z,16000.0
2022-11-22T04:37:38.000Z,16000.0
2022-11-22T04:38:39.000Z,16000.0
2022-11-22T04:39:38.000Z,16000.0
2022-11-22T04:40:38.000Z,16000.0
2022-11-22T04:41:39.000Z,16000.0
2022-11-22T04:42:38.000Z,16000.0
2022-11-22T04:43:38.000Z,16000.0
2022-11-22T04:44:39.000Z,16000.0
2022-11-22T04:45:38.000Z,15022.0
2022-11-22T04:46:38.000Z,14525.0
2022-11-22T04:47:38.000Z,15019.0
2022-11-22T04:48:38.000Z,16000.0
2022-11-22T04:49:39.000Z,15183.0
2022-11-22T04:50:38.000Z,16000.0
2022-11-22T04:51:38.000Z,16000.0
2022-11-22T04:52:39.000Z,16000.0
2022-11-22T04:53:38.000Z,16000.0
2022-11-22T04:54:38.000Z,16000.0
2022-11-22T04:55:38.000Z,16000.0
2022-11-22T04:56:38.000Z,16000.0
2022-11-22T04:57:39.000Z,16000.0
2022-11-22T04:58:38.000Z,16000.0
2022-11-22T04:59:38.000Z,16000.0
2022-11-22T05:00:38.000Z,16000.0
2022-11-22T05:01:38.000Z,16000.0
2022-11-22T05:02:38.000Z,16000.0
2022-11-22T05:03:38.000Z,16000.0
2022-11-22T05:04:38.000Z,16000.0
2022-11-22T05:05:39.000Z,16000.0
2022-11-22T05:06:38.000Z,16000.0
2022-11-22T05:07:38.000Z,16000.0
2022-11-22T05:08:38.000Z,16000.0
2022-11-22T05:09:38.000Z,16000.0
2022-11-22T05:10:39.000Z,16000.0
2022-11-22T05:11:38.000Z,16000.0
2022-11-22T05:12:38.000Z,16000.0
2022-11-22T05:13:37.000Z,16000.0
2022-11-22T05:14:38.000Z,16000.0
2022-11-22T05:15:39.000Z,16000.0
2022-11-22T05:16:38.000Z,16000.0
2022-11-22T05:17:38.000Z,16000.0
2022-11-22T05:18:39.000Z,16000.0
2022-11-22T05:19:38.000Z,16000.0
2022-11-22T05:20:38.000Z,16000.0
2022-11-22T05:21:38.000Z,16000.0
2022-11-22T05:22:38.000Z,16000.0
2022-11-22T05:23:39.000Z,16000.0
2022-11-22T05:24:38.000Z,16000.0
2022-11-22T05:25:38.000Z,16000.0
2022-11-22T05:26:38.000Z,16000.0
2022-11-22T05:27:38.000Z,16000.0
2022-11-22T05:28:38.000Z,16000.0
2022-11-22T05:29:38.000Z,16000.0
2022-11-22T05:30:38.000Z,16000.0
2022-11-22T05:31:39.000Z,16000.0
2022-11-22T05:32:38.000Z,16000.0
2022-11-22T05:33:38.000Z,16000.0
2022-11-22T05:34:38.000Z,16000.0
2022-11-22T05:35:38.000Z,16000.0
2022-11-22T05:36:39.000Z,16000.0
2022-11-22T05:37:38.000Z,16000.0
2022-11-22T05:38:38.000Z,16000.0
2022-11-22T05:39:39.000Z,16000.0
2022-11-22T05:40:38.000Z,16000.0
2022-11-22T05:41:38.000Z,16000.0
2022-11-22T05:42:39.000Z,16000.0
2022-11-22T05:43:38.000Z,16000.0
2022-11-22T05:44:38.000Z,16000.0
2022-11-22T05:45:38.000Z,16000.0
2022-11-22T05:46:38.000Z,16000.0
2022-11-22T05:47:39.000Z,16000.0
2022-11-22T05:48:38.000Z,16000.0
2022-11-22T05:49:38.000Z,16000.0
2022-11-22T05:50:39.000Z,16000.0
2022-11-22T05:51:38.000Z,16000.0
2022-11-22T05:52:38.000Z,16000.0
2022-11-22T05:53:38.000Z,16000.0
2022-11-22T05:54:38.000Z,16000.0
2022-11-22T05:55:39.000Z,16000.0
2022-11-22T05:56:38.000Z,16000.0
2022-11-22T05:57:38.000Z,16000.0
2022-11-22T05:58:38.000Z,16000.0
2022-11-22T05:59:38.000Z,16000.0
2022-11-22T06:00:39.000Z,16000.0
2022-11-22T06:01:38.000Z,16000.0
2022-11-22T06:02:38.000Z,16000.0
2022-11-22T06:03:37.000Z,16000.0
2022-11-22T06:04:38.000Z,16000.0
2022-11-22T06:05:38.000Z,16000.0
2022-11-22T06:06:38.000Z,16000.0
2022-11-22T06:07:38.000Z,16000.0
2022-11-22T06:08:39.000Z,16000.0
2022-11-22T06:09:38.000Z,16000.0
2022-11-22T06:10:38.000Z,16000.0
2022-11-22T06:11:38.000Z,16000.0
2022-11-22T06:12:38.000Z,16000.0
2022-11-22T06:13:39.000Z,16000.0
2022-11-22T06:14:38.000Z,16000.0
2022-11-22T06:15:38.000Z,16000.0
2022-11-22T06:16:39.000Z,16000.0
2022-11-22T06:17:38.000Z,16000.0
2022-11-22T06:18:38.000Z,16000.0
2022-11-22T06:19:38.000Z,16000.0
2022-11-22T06:20:38.000Z,16000.0
2022-11-22T06:21:39.000Z,16000.0
2022-11-22T06:22:38.000Z,16000.0
2022-11-22T06:23:38.000Z,16000.0
2022-11-22T06:24:38.000Z,16000.0
2022-11-22T06:25:38.000Z,16000.0
2022-11-22T06:26:39.000Z,16000.0
2022-11-22T06:27:38.000Z,16000.0
2022-11-22T06:28:38.000Z,16000.0
2022-11-22T06:29:39.000Z,16000.0
2022-11-22T06:30:38.000Z,16000.0
2022-11-22T06:31:38.000Z,16000.0
2022-11-22T06:32:38.000Z,16000.0
2022-11-22T06:33:38.000Z,16000.0
2022-11-22T06:34:39.000Z,16000.0
2022-11-22T06:35:38.000Z,16000.0
2022-11-22T06:36:38.000Z,14720.0
2022-11-22T06:37:38.000Z,14073.0
2022-11-22T06:38:38.000Z,13163.0
2022-11-22T06:39:39.000Z,12714.0
2022-11-22T06:40:38.000Z,11622.0
2022-11-22T06:41:38.000Z,12345.0
2022-11-22T06:42:39.000Z,12760.0
2022-11-22T06:43:38.000Z,12176.0
2022-11-22T06:44:38.000Z,10566.0
2022-11-22T06:45:39.000Z,9721.0
2022-11-22T06:46:38.000Z,8793.0
2022-11-22T06:47:38.000Z,9408.0
2022-11-22T06:48:38.000Z,9778.0
2022-11-22T06:49:38.000Z,11498.0
2022-11-22T06:50:39.000Z,13850.0
2022-11-22T06:51:38.000Z,15134.0
2022-11-22T06:52:38.000Z,16000.0
2022-11-22T06:53:39.000Z,16000.0
2022-11-22T06:54:38.000Z,16000.0
2022-11-22T06:55:38.000Z,16000.0
2022-11-22T06:56:38.000Z,16000.0
2022-11-22T06:57:38.000Z,16000.0
2022-11-22T06:58:39.000Z,16000.0
2022-11-22T06:59:38.000Z,16000.0
2022-11-22T07:00:38.000Z,16000.0
2022-11-22T07:01:38.000Z,16000.0
2022-11-22T07:02:38.000Z,16000.0
2022-11-22T07:03:39.000Z,16000.0
2022-11-22T07:04:38.000Z,16000.0
2022-11-22T07:05:38.000Z,16000.0
2022-11-22T07:06:39.000Z,16000.0
2022-11-22T07:07:38.000Z,16000.0
2022-11-22T07:08:38.000Z,16000.0
2022-11-22T07:09:38.000Z,16000.0
2022-11-22T07:10:38.000Z,16000.0
2022-11-22T07:11:39.000Z,16000.0
2022-11-22T07:12:38.000Z,16000.0
2022-11-22T07:13:38.000Z,16000.0
2022-11-22T07:14:38.000Z,16000.0
2022-11-22T07:15:38.000Z,16000.0
2022-11-22T07:16:39.000Z,16000.0
2022-11-22T07:17:38.000Z,16000.0
2022-11-22T07:18:38.000Z,16000.0
2022-11-22T07:19:39.000Z,16000.0
2022-11-22T07:20:38.000Z,16000.0
2022-11-22T07:21:38.000Z,16000.0
2022-11-22T07:22:38.000Z,16000.0
2022-11-22T07:23:38.000Z,16000.0
2022-11-22T07:24:39.000Z,16000.0
2022-11-22T07:25:38.000Z,16000.0
2022-11-22T07:26:38.000Z,16000.0
2022-11-22T07:27:38.000Z,16000.0
2022-11-22T07:28:38.000Z,16000.0
2022-11-22T07:29:38.000Z,16000.0
2022-11-22T07:30:38.000Z,16000.0
2022-11-22T07:31:38.000Z,16000.0
2022-11-22T07:32:39.000Z,16000.0
2022-11-22T07:33:38.000Z,16000.0
2022-11-22T07:34:38.000Z,16000.0
2022-11-22T07:35:38.000Z,16000.0
2022-11-22T07:36:38.000Z,16000.0
2022-11-22T07:37:39.000Z,16000.0
2022-11-22T07:38:38.000Z,16000.0
2022-11-22T07:39:38.000Z,16000.0
2022-11-22T07:40:37.000Z,16000.0
2022-11-22T07:41:38.000Z,16000.0
2022-11-22T07:42:38.000Z,16000.0
2022-11-22T07:43:37.000Z,16000.0
2022-11-22T07:44:38.000Z,16000.0
2022-11-22T07:45:38.000Z,16000.0
2022-11-22T07:46:38.000Z,16000.0
2022-11-22T07:47:38.000Z,16000.0
2022-11-22T07:48:39.000Z,16000.0
2022-11-22T07:49:38.000Z,16000.0
2022-11-22T07:50:38.000Z,16000.0
2022-11-22T07:51:37.000Z,16000.0
2022-11-22T07:52:38.000Z,16000.0
2022-11-22T07:53:39.000Z,16000.0
2022-11-22T07:54:38.000Z,16000.0
2022-11-22T07:55:38.000Z,16000.0
2022-11-22T07:56:39.000Z,16000.0
2022-11-22T07:57:38.000Z,16000.0
2022-11-22T07:58:38.000Z,16000.0
2022-11-22T07:59:38.000Z,16000.0
2022-11-22T08:00:38.000Z,16000.0
2022-11-22T08:01:39.000Z,16000.0
2022-11-22T08:02:38.000Z,16000.0
2022-11-22T08:03:38.000Z,16000.0
2022-11-22T08:04:38.000Z,16000.0
2022-11-22T08:05:38.000Z,16000.0
2022-11-22T08:06:38.000Z,16000.0
2022-11-22T08:07:38.000Z,16000.0
2022-11-22T08:08:38.000Z,16000.0
2022-11-22T08:09:39.000Z,16000.0
2022-11-22T08:10:38.000Z,16000.0
2022-11-22T08:11:38.000Z,16000.0
2022-11-22T08:12:38.000Z,16000.0
2022-11-22T08:13:38.000Z,16000.0
2022-11-22T08:14:39.000Z,16000.0
2022-11-22T08:15:38.000Z,16000.0
2022-11-22T08:16:38.000Z,16000.0
2022-11-22T08:17:37.000Z,16000.0
2022-11-22T08:18:38.000Z,16000.0
2022-11-22T08:19:38.000Z,16000.0
2022-11-22T08:20:38.000Z,16000.0
2022-11-22T08:21:38.000Z,16000.0
2022-11-22T08:22:39.000Z,16000.0
2022-11-22T08:23:38.000Z,16000.0
2022-11-22T08:24:38.000Z,16000.0
2022-11-22T08:25:38.000Z,16000.0
2022-11-22T08:26:38.000Z,16000.0
2022-11-22T08:27:39.000Z,16000.0
2022-11-22T08:28:38.000Z,16000.0
2022-11-22T08:29:38.000Z,16000.0
2022-11-22T08:30:37.000Z,16000.0
2022-11-22T08:31:38.000Z,16000.0
2022-11-22T08:32:38.000Z,16000.0
2022-11-22T08:33:38.000Z,16000.0
2022-11-22T08:34:38.000Z,16000.0
2022-11-22T08:35:39.000Z,16000.0
2022-11-22T08:36:38.000Z,16000.0
2022-11-22T08:37:38.000Z,16000.0
2022-11-22T08:38:38.000Z,16000.0
2022-11-22T08:39:38.000Z,16000.0
2022-11-22T08:40:39.000Z,16000.0
2022-11-22T08:41:38.000Z,16000.0
2022-11-22T08:42:38.000Z,16000.0
2022-11-22T08:43:39.000Z,16000.0
2022-11-22T08:44:38.000Z,16000.0
2022-11-22T08:45:38.000Z,16000.0
2022-11-22T08:46:39.000Z,16000.0
2022-11-22T08:47:38.000Z,16000.0
2022-11-22T08:48:38.000Z,16000.0
2022-11-22T08:49:38.000Z,16000.0
2022-11-22T08:50:38.000Z,16000.0
2022-11-22T08:51:38.000Z,16000.0
2022-11-22T08:52:38.000Z,16000.0
2022-11-22T08:53:38.000Z,16000.0
2022-11-22T08:54:39.000Z,16000.0
2022-11-22T08:55:38.000Z,16000.0
2022-11-22T08:56:38.000Z,16000.0
2022-11-22T08:57:38.000Z,16000.0
2022-11-22T08:58:38.000Z,16000.0
2022-11-22T08:59:39.000Z,16000.0
2022-11-22T09:00:38.000Z,16000.0
2022-11-22T09:01:38.000Z,16000.0
2022-11-22T09:02:37.000Z,16000.0
2022-11-22T09:03:38.000Z,16000.0
2022-11-22T09:04:39.000Z,16000.0
2022-11-22T09:08:38.000Z,16000.0
2022-11-22T09:09:38.000Z,16000.0
2022-11-22T09:10:38.000Z,16000.0
2022-11-22T09:11:38.000Z,16000.0
2022-11-22T09:12:39.000Z,16000.0
2022-11-22T09:13:38.000Z,16000.0
2022-11-22T09:14:38.000Z,16000.0
2022-11-22T09:15:38.000Z,16000.0
2022-11-22T09:16:38.000Z,16000.0
2022-11-22T09:17:38.000Z,16000.0
2022-11-22T09:18:38.000Z,16000.0
2022-11-22T09:19:38.000Z,16000.0
2022-11-22T09:20:39.000Z,16000.0
2022-11-22T09:21:38.000Z,16000.0
2022-11-22T09:22:38.000Z,16000.0
2022-11-22T09:23:38.000Z,16000.0
2022-11-22T09:24:38.000Z,16000.0
2022-11-22T09:25:39.000Z,16000.0
2022-11-22T09:26:38.000Z,16000.0
2022-11-22T09:27:38.000Z,16000.0
2022-11-22T09:28:37.000Z,16000.0
2022-11-22T09:29:38.000Z,16000.0
2022-11-22T09:30:38.000Z,16000.0
2022-11-22T09:31:38.000Z,16000.0
2022-11-22T09:32:38.000Z,16000.0
2022-11-22T09:33:39.000Z,16000.0
2022-11-22T09:34:38.000Z,16000.0
2022-11-22T09:35:38.000Z,16000.0
2022-11-22T09:36:38.000Z,16000.0
2022-11-22T09:37:38.000Z,16000.0
2022-11-22T09:38:39.000Z,16000.0
2022-11-22T09:39:38.000Z,16000.0
2022-11-22T09:40:38.000Z,16000.0
2022-11-22T09:41:39.000Z,16000.0
2022-11-22T09:42:38.000Z,16000.0
2022-11-22T09:43:38.000Z,16000.0
2022-11-22T09:44:39.000Z,16000.0
2022-11-22T09:45:38.000Z,16000.0
2022-11-22T09:46:38.000Z,16000.0
2022-11-22T09:47:38.000Z,16000.0
2022-11-22T09:48:38.000Z,16000.0
2022-11-22T09:49:39.000Z,16000.0
2022-11-22T09:50:38.000Z,16000.0
2022-11-22T09:51:38.000Z,16000.0
2022-11-22T09:52:39.000Z,16000.0
2022-11-22T09:53:38.000Z,16000.0
2022-11-22T09:54:38.000Z,16000.0
2022-11-22T09:55:38.000Z,16000.0
2022-11-22T09:56:38.000Z,16000.0
2022-11-22T09:57:39.000Z,16000.0
2022-11-22T09:58:38.000Z,16000.0
2022-11-22T09:59:38.000Z,16000.0
2022-11-22T10:00:38.000Z,16000.0
2022-11-22T10:01:38.000Z,16000.0
2022-11-22T10:02:38.000Z,16000.0
2022-11-22T10:03:38.000Z,16000.0
2022-11-22T10:04:38.000Z,16000.0
2022-11-22T10:05:39.000Z,16000.0
2022-11-22T10:06:38.000Z,16000.0
2022-11-22T10:07:38.000Z,16000.0
2022-11-22T10:08:38.000Z,16000.0
2022-11-22T10:09:38.000Z,16000.0
2022-11-22T10:10:39.000Z,16000.0
2022-11-22T10:11:38.000Z,16000.0
2022-11-22T10:12:38.000Z,16000.0
2022-11-22T10:13:37.000Z,16000.0
2022-11-22T10:14:38.000Z,16000.0
2022-11-22T10:15:39.000Z,16000.0
2022-11-22T10:16:38.000Z,16000.0
2022-11-22T10:17:38.000Z,16000.0
2022-11-22T10:18:39.000Z,16000.0
2022-11-22T10:19:38.000Z,16000.0
2022-11-22T10:20:38.000Z,16000.0
2022-11-22T10:21:38.000Z,16000.0
2022-11-22T10:22:38.000Z,16000.0
2022-11-22T10:23:39.000Z,16000.0
2022-11-22T10:24:38.000Z,16000.0
2022-11-22T10:25:38.000Z,16000.0
2022-11-22T10:26:38.000Z,16000.0
2022-11-22T10:27:38.000Z,16000.0
2022-11-22T10:28:38.000Z,16000.0
2022-11-22T10:29:38.000Z,16000.0
2022-11-22T10:30:38.000Z,16000.0
2022-11-22T10:31:39.000Z,16000.0
2022-11-22T10:32:38.000Z,16000.0
2022-11-22T10:33:38.000Z,16000.0
2022-11-22T10:34:38.000Z,16000.0
2022-11-22T10:35:38.000Z,16000.0
2022-11-22T10:36:39.000Z,16000.0
2022-11-22T10:37:38.000Z,16000.0
2022-11-22T10:38:38.000Z,16000.0
2022-11-22T10:39:37.000Z,16000.0
2022-11-22T10:40:38.000Z,16000.0
2022-11-22T10:41:38.000Z,16000.0
2022-11-22T10:42:38.000Z,16000.0
2022-11-22T10:43:38.000Z,16000.0
2022-11-22T10:44:39.000Z,16000.0
2022-11-22T10:45:38.000Z,16000.0
2022-11-22T10:46:38.000Z,16000.0
2022-11-22T10:47:38.000Z,16000.0
2022-11-22T10:48:38.000Z,16000.0
2022-11-22T10:49:39.000Z,16000.0
2022-11-22T10:50:38.000Z,16000.0
2022-11-22T10:51:38.000Z,16000.0
2022-11-22T10:52:39.000Z,16000.0
2022-11-22T10:53:38.000Z,16000.0
2022-11-22T10:54:38.000Z,16000.0
2022-11-22T10:55:38.000Z,16000.0
2022-11-22T10:56:38.000Z,16000.0
2022-11-22T10:57:39.000Z,16000.0
2022-11-22T10:58:38.000Z,16000.0
2022-11-22T10:59:38.000Z,16000.0
2022-11-22T11:00:38.000Z,16000.0
2022-11-22T11:01:38.000Z,16000.0
2022-11-22T11:02:39.000Z,16000.0
2022-11-22T11:03:38.000Z,16000.0
2022-11-22T11:04:38.000Z,16000.0
2022-11-22T11:05:37.000Z,16000.0
2022-11-22T11:06:38.000Z,16000.0
2022-11-22T11:07:38.000Z,16000.0
2022-11-22T11:09:38.000Z,16000.0
2022-11-22T11:10:39.000Z,16000.0
2022-11-22T11:11:38.000Z,16000.0
2022-11-22T11:12:38.000Z,16000.0
2022-11-22T11:13:38.000Z,16000.0
2022-11-22T11:14:38.000Z,16000.0
2022-11-22T11:15:39.000Z,16000.0
2022-11-22T11:16:38.000Z,16000.0
2022-11-22T11:17:38.000Z,16000.0
2022-11-22T11:18:39.000Z,16000.0
2022-11-22T11:19:38.000Z,16000.0
2022-11-22T11:20:38.000Z,16000.0
2022-11-22T11:21:38.000Z,16000.0
2022-11-22T11:22:38.000Z,16000.0
2022-11-22T11:23:39.000Z,16000.0
2022-11-22T11:24:38.000Z,16000.0
2022-11-22T11:25:38.000Z,16000.0
2022-11-22T11:26:38.000Z,16000.0
2022-11-22T11:27:38.000Z,16000.0
2022-11-22T11:28:38.000Z,16000.0
2022-11-22T11:29:38.000Z,16000.0
2022-11-22T11:30:38.000Z,16000.0
2022-11-22T11:31:37.000Z,16000.0
2022-11-22T11:32:38.000Z,16000.0
2022-11-22T11:33:38.000Z,16000.0
2022-11-22T11:34:38.000Z,16000.0
2022-11-22T11:35:38.000Z,16000.0
2022-11-22T11:36:39.000Z,16000.0
2022-11-22T11:37:38.000Z,16000.0
2022-11-22T11:38:38.000Z,16000.0
2022-11-22T11:39:37.000Z,16000.0
2022-11-22T11:40:38.000Z,16000.0
2022-11-22T11:41:38.000Z,16000.0
2022-11-22T11:42:38.000Z,16000.0
2022-11-22T11:43:38.000Z,16000.0
2022-11-22T11:44:39.000Z,16000.0
2022-11-22T11:45:38.000Z,16000.0
2022-11-22T11:46:38.000Z,16000.0
2022-11-22T11:47:38.000Z,16000.0
2022-11-22T11:48:38.000Z,16000.0
2022-11-22T11:49:39.000Z,16000.0
2022-11-22T11:50:38.000Z,16000.0
2022-11-22T11:51:38.000Z,16000.0
2022-11-22T11:52:37.000Z,16000.0
2022-11-22T11:53:38.000Z,16000.0
2022-11-22T11:54:38.000Z,16000.0
2022-11-22T11:55:38.000Z,16000.0
2022-11-22T11:56:38.000Z,16000.0
2022-11-22T11:57:39.000Z,16000.0
2022-11-22T11:58:38.000Z,16000.0
2022-11-22T11:59:38.000Z,16000.0
2022-11-22T12:00:38.000Z,16000.0
2022-11-22T12:01:38.000Z,16000.0
2022-11-22T12:02:39.000Z,16000.0
2022-11-22T12:03:38.000Z,16000.0
2022-11-22T12:04:38.000Z,16000.0
2022-11-22T12:05:37.000Z,16000.0
2022-11-22T12:06:38.000Z,16000.0
2022-11-22T12:07:38.000Z,16000.0
2022-11-22T12:08:38.000Z,16000.0
2022-11-22T12:09:38.000Z,16000.0
2022-11-22T12:10:39.000Z,16000.0